createdAt,value
2018-07-14T00:02:33.004Z,102028.44
2018-07-14T00:05:35.044Z,102024.90
2018-07-14T00:08:37.131Z,102023.34
2018-07-14T00:11:39.200Z,102025.72
2018-07-14T00:14:41.547Z,102024.80
2018-07-14T00:17:43.637Z,102022.91
2018-07-14T00:20:45.712Z,102026.69
2018-07-14T00:23:48.680Z,102027.03
2018-07-14T00:26:50.740Z,102026.44
2018-07-14T00:29:52.821Z,102021.88
2018-07-14T00:32:55.107Z,102023.82
2018-07-14T00:35:57.203Z,102022.32
2018-07-14T00:38:59.227Z,102027.42
2018-07-14T00:42:01.920Z,102031.17
2018-07-14T00:45:03.999Z,102020.38
2018-07-14T00:48:06.075Z,102016.05
2018-07-14T00:51:08.259Z,102010.81
2018-07-14T00:54:11.361Z,102007.93
2018-07-14T00:57:13.407Z,102012.45
2018-07-14T01:00:15.592Z,102020.96
2018-07-14T01:03:17.736Z,102024.35
2018-07-14T01:06:19.805Z,102026.72
2018-07-14T01:09:22.875Z,102029.28
2018-07-14T01:12:24.857Z,102034.79
2018-07-14T01:15:26.959Z,102034.99
2018-07-14T01:18:30.106Z,102032.90
2018-07-14T01:21:32.240Z,102032.53
2018-07-14T01:24:34.343Z,102041.95
2018-07-14T01:27:36.534Z,102028.21
2018-07-14T01:30:38.524Z,102036.93
2018-07-14T01:33:40.568Z,102033.75
2018-07-14T01:36:42.741Z,102029.78
2018-07-14T01:39:44.820Z,102027.43
2018-07-14T01:42:46.882Z,102027.84
2018-07-14T01:45:48.940Z,102025.80
2018-07-14T01:48:51.020Z,102024.19
2018-07-14T01:51:53.105Z,102025.85
2018-07-14T01:54:55.176Z,102021.98
2018-07-14T01:57:57.346Z,102019.27
2018-07-14T02:00:59.300Z,102023.87
2018-07-14T02:04:02.707Z,102021.88
2018-07-14T02:07:05.963Z,102021.45
2018-07-14T02:10:09.199Z,102014.51
2018-07-14T02:13:11.281Z,102015.20
2018-07-14T02:16:13.428Z,102020.05
2018-07-14T02:19:15.552Z,102022.88
2018-07-14T02:22:17.528Z,102020.58
2018-07-14T02:25:19.907Z,102021.45
2018-07-14T02:28:22.024Z,102023.62
2018-07-14T02:31:24.148Z,102023.13
2018-07-14T02:34:26.225Z,102019.47
2018-07-14T02:37:28.325Z,102017.05
2018-07-14T02:40:31.832Z,102020.87
2018-07-14T02:43:34.007Z,102020.87
2018-07-14T02:46:36.069Z,102025.77
2018-07-14T02:49:38.155Z,102027.90
2018-07-14T02:52:40.196Z,102029.23
2018-07-14T02:55:42.288Z,102030.60
2018-07-14T02:58:44.352Z,102030.06
2018-07-14T03:01:46.448Z,102023.12
2018-07-14T03:04:48.656Z,102030.92
2018-07-14T03:07:50.763Z,102033.19
2018-07-14T03:10:52.832Z,102034.22
2018-07-14T03:13:55.012Z,102040.55
2018-07-14T03:16:57.236Z,102043.90
2018-07-14T03:19:59.351Z,102040.15
2018-07-14T03:23:02.649Z,102042.02
2018-07-14T03:26:04.727Z,102039.46
2018-07-14T03:29:06.762Z,102037.65
2018-07-14T03:32:09.011Z,102033.15
2018-07-14T03:35:11.128Z,102032.53
2018-07-14T03:38:13.189Z,102035.52
2018-07-14T03:41:17.328Z,102036.34
2018-07-14T03:44:19.422Z,102035.49
2018-07-14T03:47:21.521Z,102039.11
2018-07-14T03:50:23.513Z,102047.04
2018-07-14T03:53:25.667Z,102043.54
2018-07-14T03:56:27.804Z,102044.47
2018-07-14T03:59:30.110Z,102046.16
2018-07-14T04:02:33.631Z,102052.54
2018-07-14T04:05:35.748Z,102051.52
2018-07-14T04:08:37.793Z,102049.61
2018-07-14T04:11:39.767Z,102042.99
2018-07-14T04:14:41.853Z,102043.08
2018-07-14T04:17:43.919Z,102049.30
2018-07-14T04:20:47.021Z,102046.97
2018-07-14T04:23:49.194Z,102051.45
2018-07-14T04:26:51.231Z,102053.30
2018-07-14T04:29:53.217Z,102060.36
2018-07-14T04:32:55.291Z,102059.96
2018-07-14T04:35:57.499Z,102063.60
2018-07-14T04:38:59.564Z,102068.94
2018-07-14T04:42:01.616Z,102055.20
2018-07-14T04:45:05.267Z,102052.77
2018-07-14T04:48:11.287Z,102045.25
2018-07-14T04:51:13.351Z,102048.48
2018-07-14T04:54:15.442Z,102055.44
2018-07-14T04:57:17.630Z,102060.89
2018-07-14T05:00:19.703Z,102051.07
2018-07-14T05:03:22.892Z,102052.06
2018-07-14T05:06:25.162Z,102052.87
2018-07-14T05:09:27.265Z,102057.44
2018-07-14T05:12:29.233Z,102058.95
2018-07-14T05:15:33.025Z,102062.20
2018-07-14T05:18:35.618Z,102056.02
2018-07-14T05:21:37.686Z,102057.11
2018-07-14T05:24:39.838Z,102054.57
2018-07-14T05:27:41.914Z,102059.20
2018-07-14T05:30:44.135Z,102060.51
2018-07-14T05:33:47.288Z,102058.35
2018-07-14T05:36:49.380Z,102059.96
2018-07-14T05:39:52.556Z,102057.92
2018-07-14T05:42:54.719Z,102063.33
2018-07-14T05:45:56.793Z,102056.35
2018-07-14T05:48:58.953Z,102056.94
2018-07-14T05:52:01.010Z,102053.73
2018-07-14T05:55:03.875Z,102058.91
2018-07-14T05:58:06.023Z,102059.06
2018-07-14T06:01:08.505Z,102061.49
2018-07-14T06:04:12.051Z,102063.36
2018-07-14T06:07:14.135Z,102069.16
2018-07-14T06:10:16.243Z,102074.10
2018-07-14T06:13:18.278Z,102072.98
2018-07-14T06:16:20.449Z,102072.22
2018-07-14T06:19:22.550Z,102074.64
2018-07-14T06:22:24.597Z,102074.84
2018-07-14T06:25:29.718Z,102073.57
2018-07-14T06:28:32.465Z,102071.50
2018-07-14T06:31:36.588Z,102072.82
2018-07-14T06:34:38.739Z,102071.36
2018-07-14T06:37:40.888Z,102073.83
2018-07-14T06:40:42.844Z,102070.47
2018-07-14T06:43:45.021Z,102072.12
2018-07-14T06:46:47.118Z,102070.91
2018-07-14T06:49:49.961Z,102069.31
2018-07-14T06:52:52.519Z,102068.71
2018-07-14T06:55:55.151Z,102066.19
2018-07-14T06:58:57.212Z,102062.69
2018-07-14T07:01:59.366Z,102065.50
2018-07-14T07:05:03.708Z,102067.54
2018-07-14T07:08:06.350Z,102065.89
2018-07-14T07:11:08.457Z,102064.56
2018-07-14T07:14:10.925Z,102070.61
2018-07-14T07:17:13.105Z,102068.85
2018-07-14T07:20:15.111Z,102061.18
2018-07-14T07:23:17.230Z,102065.55
2018-07-14T07:26:19.279Z,102059.32
2018-07-14T07:29:21.786Z,102062.89
2018-07-14T07:32:26.412Z,102060.43
2018-07-14T07:35:30.286Z,102063.76
2018-07-14T07:38:33.591Z,102064.01
2018-07-14T07:41:38.083Z,102066.92
2018-07-14T07:44:40.235Z,102056.73
2018-07-14T07:47:42.708Z,102055.67
2018-07-14T07:50:44.911Z,102055.87
2018-07-14T07:53:46.932Z,102052.94
2018-07-14T07:56:49.015Z,102051.01
2018-07-14T07:59:51.200Z,102051.24
2018-07-14T08:02:53.231Z,102045.12
2018-07-14T08:05:55.224Z,102045.79
2018-07-14T08:08:57.276Z,102042.58
2018-07-14T08:11:59.346Z,102039.98
2018-07-14T08:15:01.463Z,102040.48
2018-07-14T08:18:04.124Z,102042.83
2018-07-14T08:21:06.306Z,102042.40
2018-07-14T08:24:08.360Z,102041.79
2018-07-14T08:27:15.436Z,102029.29
2018-07-14T08:30:17.398Z,102033.56
2018-07-14T08:33:19.844Z,102031.42
2018-07-14T08:36:21.927Z,102026.73
2018-07-14T08:39:24.028Z,102018.27
2018-07-14T08:42:26.088Z,102023.22
2018-07-14T08:45:28.176Z,102020.83
2018-07-14T08:48:30.387Z,102017.75
2018-07-14T08:51:33.542Z,102014.32
2018-07-14T08:54:35.644Z,102020.56
2018-07-14T08:57:37.768Z,102019.85
2018-07-14T09:00:39.822Z,102012.98
2018-07-14T09:03:42.048Z,102013.40
2018-07-14T09:06:44.049Z,102004.56
2018-07-14T09:09:46.170Z,102008.05
2018-07-14T09:12:48.329Z,102007.89
2018-07-14T09:15:50.453Z,102008.44
2018-07-14T09:18:52.782Z,102008.85
2018-07-14T09:21:54.937Z,102005.31
2018-07-14T09:24:57.591Z,102005.89
2018-07-14T09:27:59.673Z,102003.84
2018-07-14T09:31:01.655Z,101996.05
2018-07-14T09:34:05.235Z,101986.86
2018-07-14T09:37:07.334Z,101982.33
2018-07-14T09:40:09.387Z,101984.73
2018-07-14T09:43:11.532Z,101982.89
2018-07-14T09:46:13.852Z,101980.45
2018-07-14T09:49:15.935Z,101985.59
2018-07-14T09:52:18.034Z,101976.50
2018-07-14T09:55:20.360Z,101978.36
2018-07-14T09:58:22.428Z,101974.18
2018-07-14T10:01:24.466Z,101977.41
2018-07-14T10:04:26.676Z,101969.93
2018-07-14T10:07:28.842Z,101969.10
2018-07-14T10:10:30.952Z,101961.94
2018-07-14T10:13:33.085Z,101956.35
2018-07-14T10:16:35.255Z,101952.09
2018-07-14T10:19:37.386Z,101942.39
2018-07-14T10:22:39.348Z,101934.51
2018-07-14T10:25:45.368Z,101935.71
2018-07-14T10:28:47.725Z,101930.05
2018-07-14T10:31:50.790Z,101924.74
2018-07-14T10:34:53.297Z,101928.21
2018-07-14T10:38:01.198Z,101924.79
2018-07-14T10:41:03.495Z,101918.37
2018-07-14T10:44:05.771Z,101924.36
2018-07-14T10:47:07.848Z,101922.95
2018-07-14T10:50:09.976Z,101925.26
2018-07-14T10:53:12.114Z,101918.95
2018-07-14T10:56:14.330Z,101913.90
2018-07-14T10:59:16.308Z,101907.26
2018-07-14T11:02:18.440Z,101905.29
2018-07-14T11:05:20.500Z,101899.06
2018-07-14T11:08:22.573Z,101900.23
2018-07-14T11:11:24.745Z,101895.51
2018-07-14T11:14:26.861Z,101891.61
2018-07-14T11:17:29.029Z,101887.40
2018-07-14T11:20:31.179Z,101886.92
2018-07-14T11:23:33.191Z,101883.27
2018-07-14T11:26:35.412Z,101885.66
2018-07-14T11:29:37.520Z,101882.81
2018-07-14T11:32:39.561Z,101880.02
2018-07-14T11:35:41.499Z,101881.74
2018-07-14T11:38:45.759Z,101875.99
2018-07-14T11:41:48.772Z,101873.26
2018-07-14T11:44:50.917Z,101867.09
2018-07-14T11:47:52.949Z,101870.77
2018-07-14T11:50:54.983Z,101871.02
2018-07-14T11:53:57.115Z,101869.04
2018-07-14T11:57:01.925Z,101864.36
2018-07-14T12:00:04.503Z,101861.64
2018-07-14T12:03:12.796Z,101858.27
2018-07-14T12:06:14.853Z,101854.04
2018-07-14T12:09:18.024Z,101849.32
2018-07-14T12:12:20.190Z,101836.39
2018-07-14T12:15:22.282Z,101837.74
2018-07-14T12:18:24.635Z,101830.64
2018-07-14T12:21:26.763Z,101823.47
2018-07-14T12:24:28.947Z,101817.08
2018-07-14T12:27:31.121Z,101815.38
2018-07-14T12:30:33.302Z,101821.85
2018-07-14T12:33:35.286Z,101817.04
2018-07-14T12:36:37.489Z,101808.43
2018-07-14T12:39:39.612Z,101808.79
2018-07-14T12:42:41.708Z,101801.17
2018-07-14T12:45:44.906Z,101794.40
2018-07-14T12:48:47.967Z,101796.54
2018-07-14T12:51:50.124Z,101786.71
2018-07-14T12:54:52.252Z,101786.89
2018-07-14T12:57:54.309Z,101789.40
2018-07-14T13:00:56.532Z,101788.59
2018-07-14T13:03:58.664Z,101784.76
2018-07-14T13:07:00.723Z,101778.95
2018-07-14T13:10:04.687Z,101770.12
2018-07-14T13:13:06.835Z,101783.14
2018-07-14T13:16:08.922Z,101777.23
2018-07-14T13:19:11.090Z,101780.10
2018-07-14T13:22:13.240Z,101783.12
2018-07-14T13:25:16.331Z,101790.42
2018-07-14T13:28:19.409Z,101781.26
2018-07-14T13:31:21.524Z,101774.31
2018-07-14T13:34:23.800Z,101769.85
2018-07-14T13:37:25.816Z,101759.99
2018-07-14T13:40:27.880Z,101753.05
2018-07-14T13:43:29.934Z,101754.86
2018-07-14T13:46:32.048Z,101754.97
2018-07-14T13:49:34.102Z,101754.35
2018-07-14T13:52:36.263Z,101755.56
2018-07-14T13:55:38.434Z,101749.50
2018-07-14T13:58:40.547Z,101749.82
2018-07-14T14:01:42.787Z,101752.90
2018-07-14T14:04:44.985Z,101751.04
2018-07-14T14:07:47.036Z,101745.04
2018-07-14T14:10:49.412Z,101743.15
2018-07-14T14:13:51.518Z,101743.37
2018-07-14T14:16:53.880Z,101739.03
2018-07-14T14:19:56.071Z,101727.69
2018-07-14T14:22:58.064Z,101727.66
2018-07-14T14:26:01.220Z,101728.28
2018-07-14T14:29:03.407Z,101726.98
2018-07-14T14:32:05.489Z,101725.86
2018-07-14T14:35:07.602Z,101721.94
2018-07-14T14:38:10.540Z,101711.45
2018-07-14T14:41:13.735Z,101712.25
2018-07-14T14:44:15.903Z,101710.39
2018-07-14T14:47:19.399Z,101710.75
2018-07-14T14:50:21.568Z,101704.38
2018-07-14T14:53:23.695Z,101702.25
2018-07-14T14:56:25.853Z,101693.76
2018-07-14T14:59:28.032Z,101696.82
2018-07-14T15:02:30.352Z,101699.20
2018-07-14T15:05:32.480Z,101686.46
2018-07-14T15:08:34.543Z,101686.95
2018-07-14T15:11:36.652Z,101689.77
2018-07-14T15:14:38.815Z,101683.44
2018-07-14T15:17:40.868Z,101684.25
2018-07-14T15:20:43.880Z,101683.20
2018-07-14T15:23:45.932Z,101675.56
2018-07-14T15:26:49.195Z,101676.02
2018-07-14T15:29:52.336Z,101669.66
2018-07-14T15:32:54.557Z,101674.72
2018-07-14T15:35:56.527Z,101668.47
2018-07-14T15:38:58.604Z,101667.45
2018-07-14T15:42:00.711Z,101661.96
2018-07-14T15:45:02.807Z,101658.95
2018-07-14T15:48:04.867Z,101658.49
2018-07-14T15:51:06.943Z,101655.41
2018-07-14T15:54:09.271Z,101654.01
2018-07-14T15:57:11.427Z,101651.28
2018-07-14T16:00:13.521Z,101652.30
2018-07-14T16:03:15.683Z,101648.21
2018-07-14T16:06:18.987Z,101644.77
2018-07-14T16:09:21.091Z,101644.74
2018-07-14T16:12:23.253Z,101647.61
2018-07-14T16:15:25.764Z,101652.53
2018-07-14T16:18:27.874Z,101647.10
2018-07-14T16:21:30.036Z,101655.49
2018-07-14T16:24:32.173Z,101652.32
2018-07-14T16:27:34.179Z,101644.21
2018-07-14T16:30:36.411Z,101644.07
2018-07-14T16:33:38.699Z,101643.93
2018-07-14T16:36:40.854Z,101643.64
2018-07-14T16:39:43.060Z,101647.33
2018-07-14T16:42:45.167Z,101642.98
2018-07-14T16:45:47.817Z,101635.31
2018-07-14T16:48:50.012Z,101636.56
2018-07-14T16:51:52.100Z,101635.95
2018-07-14T16:54:54.115Z,101636.65
2018-07-14T16:57:57.332Z,101635.72
2018-07-14T17:00:59.399Z,101628.91
2018-07-14T17:04:01.572Z,101629.39
2018-07-14T17:07:04.633Z,101631.68
2018-07-14T17:10:06.740Z,101625.30
2018-07-14T17:13:08.714Z,101624.32
2018-07-14T17:16:10.897Z,101628.36
2018-07-14T17:19:13.071Z,101625.77
2018-07-14T17:22:15.120Z,101624.59
2018-07-14T17:25:17.328Z,101623.28
2018-07-14T17:28:20.495Z,101621.25
2018-07-14T17:31:22.630Z,101613.32
2018-07-14T17:34:24.616Z,101613.98
2018-07-14T17:37:26.735Z,101614.28
2018-07-14T17:40:28.850Z,101613.83
2018-07-14T17:43:31.064Z,101614.79
2018-07-14T17:46:33.275Z,101614.87
2018-07-14T17:49:35.436Z,101615.33
2018-07-14T17:52:37.789Z,101609.53
2018-07-14T17:55:39.934Z,101617.34
2018-07-14T17:58:42.054Z,101620.98
2018-07-14T18:01:44.034Z,101621.33
2018-07-14T18:04:46.140Z,101622.76
2018-07-14T18:07:49.344Z,101622.47
2018-07-14T18:10:51.869Z,101625.83
2018-07-14T18:13:53.999Z,101626.45
2018-07-14T18:16:56.082Z,101624.70
2018-07-14T18:19:58.475Z,101625.52
2018-07-14T18:23:00.607Z,101627.26
2018-07-14T18:26:02.737Z,101629.21
2018-07-14T18:29:06.853Z,101632.13
2018-07-14T18:32:09.009Z,101631.55
2018-07-14T18:35:11.147Z,101630.39
2018-07-14T18:38:13.240Z,101625.61
2018-07-14T18:41:15.459Z,101626.15
2018-07-14T18:44:17.483Z,101626.27
2018-07-14T18:47:20.825Z,101630.08
2018-07-14T18:50:22.926Z,101631.32
2018-07-14T18:53:25.074Z,101636.05
2018-07-14T18:56:27.155Z,101632.73
2018-07-14T18:59:29.225Z,101632.78
2018-07-14T19:02:31.480Z,101637.53
2018-07-14T19:05:33.575Z,101640.19
2018-07-14T19:08:35.715Z,101643.56
2018-07-14T19:11:37.844Z,101646.32
2018-07-14T19:14:39.929Z,101649.64
2018-07-14T19:17:41.939Z,101647.99
2018-07-14T19:20:44.131Z,101651.08
2018-07-14T19:23:46.194Z,101646.03
2018-07-14T19:26:49.084Z,101652.05
2018-07-14T19:29:51.133Z,101656.18
2018-07-14T19:32:53.456Z,101658.54
2018-07-14T19:35:58.824Z,101664.13
2018-07-14T19:39:01.162Z,101667.41
2018-07-14T19:42:03.326Z,101668.60
2018-07-14T19:45:05.292Z,101675.21
2018-07-14T19:48:07.445Z,101676.34
2018-07-14T19:51:09.600Z,101677.61
2018-07-14T19:54:11.605Z,101678.10
2018-07-14T19:57:13.673Z,101684.67
2018-07-14T20:00:15.794Z,101684.93
2018-07-14T20:03:17.941Z,101684.54
2018-07-14T20:06:21.506Z,101683.16
2018-07-14T20:09:23.602Z,101687.18
2018-07-14T20:12:25.664Z,101687.96
2018-07-14T20:15:27.680Z,101689.39
2018-07-14T20:18:29.848Z,101698.47
2018-07-14T20:21:32.922Z,101699.81
2018-07-14T20:24:34.980Z,101703.69
2018-07-14T20:27:37.459Z,101699.91
2018-07-14T20:30:39.520Z,101702.01
2018-07-14T20:33:41.568Z,101701.89
2018-07-14T20:36:43.687Z,101705.90
2018-07-14T20:39:45.848Z,101711.88
2018-07-14T20:42:47.948Z,101709.76
2018-07-14T20:45:51.200Z,101710.41
2018-07-14T20:48:53.252Z,101709.32
2018-07-14T20:51:55.344Z,101708.80
2018-07-14T20:54:57.340Z,101714.08
2018-07-14T20:57:59.394Z,101710.94
2018-07-14T21:01:01.464Z,101711.57
2018-07-14T21:04:03.676Z,101713.67
2018-07-14T21:07:05.827Z,101717.75
2018-07-14T21:10:07.927Z,101721.19
2018-07-14T21:13:10.076Z,101723.64
2018-07-14T21:16:12.032Z,101724.14
2018-07-14T21:19:14.147Z,101728.35
2018-07-14T21:22:16.259Z,101728.73
2018-07-14T21:25:20.339Z,101726.00
2018-07-14T21:28:22.440Z,101727.36
2018-07-14T21:31:24.513Z,101732.93
2018-07-14T21:34:26.574Z,101732.73
2018-07-14T21:37:28.695Z,101732.87
2018-07-14T21:40:30.858Z,101736.53
2018-07-14T21:43:32.959Z,101736.77
2018-07-14T21:46:35.054Z,101738.10
2018-07-14T21:49:37.149Z,101740.61
2018-07-14T21:52:39.252Z,101750.26
2018-07-14T21:55:41.199Z,101753.42
2018-07-14T21:58:44.360Z,101754.45
2018-07-14T22:01:50.287Z,101756.53
2018-07-14T22:04:52.433Z,101754.49
2018-07-14T22:07:54.579Z,101752.39
2018-07-14T22:10:56.628Z,101754.87
2018-07-14T22:13:58.692Z,101753.49
2018-07-14T22:17:00.852Z,101755.05
2018-07-14T22:20:02.979Z,101752.93
2018-07-14T22:23:05.238Z,101751.14
2018-07-14T22:26:07.505Z,101766.32
2018-07-14T22:29:09.672Z,101768.74
2018-07-14T22:32:11.689Z,101763.55
2018-07-14T22:35:13.873Z,101767.39
2018-07-14T22:38:16.015Z,101774.47
2018-07-14T22:41:18.024Z,101773.95
2018-07-14T22:44:20.009Z,101773.36
2018-07-14T22:47:23.105Z,101773.04
2018-07-14T22:50:25.259Z,101771.10
2018-07-14T22:53:27.333Z,101767.89
2018-07-14T22:56:29.458Z,101764.93
2018-07-14T22:59:31.480Z,101763.74
2018-07-14T23:02:33.719Z,101764.28
2018-07-14T23:05:35.827Z,101761.05
2018-07-14T23:08:37.896Z,101761.31
2018-07-14T23:11:39.976Z,101767.39
2018-07-14T23:14:42.144Z,101769.68
2018-07-14T23:17:44.216Z,101765.91
2018-07-14T23:20:46.562Z,101768.85
2018-07-14T23:23:48.691Z,101768.27
2018-07-14T23:26:51.870Z,101770.70
2018-07-14T23:29:54.025Z,101767.20
2018-07-14T23:32:56.107Z,101770.36
2018-07-14T23:35:58.147Z,101768.07
2018-07-14T23:39:00.264Z,101775.25
2018-07-14T23:42:02.281Z,101773.02
2018-07-14T23:45:04.424Z,101766.23
2018-07-14T23:48:06.615Z,101762.53
2018-07-14T23:51:08.589Z,101761.52
2018-07-14T23:54:10.663Z,101760.48
2018-07-14T23:57:12.660Z,101756.34
